createdAt,value
2018-04-11T00:00:51.572Z,70.50
2018-04-11T00:01:51.489Z,70.50
2018-04-11T00:02:51.411Z,70.59
2018-04-11T00:03:51.336Z,70.59
2018-04-11T00:04:51.247Z,70.50
2018-04-11T00:05:51.172Z,70.50
2018-04-11T00:06:51.102Z,70.40
2018-04-11T00:07:51.026Z,70.21
2018-04-11T00:08:50.937Z,70.30
2018-04-11T00:09:50.862Z,70.62
2018-04-11T00:10:50.787Z,70.81
2018-04-11T00:11:50.715Z,70.78
2018-04-11T00:12:50.637Z,70.91
2018-04-11T00:13:50.562Z,70.81
2018-04-11T00:14:50.475Z,70.81
2018-04-11T00:15:50.400Z,70.81
2018-04-11T00:16:50.330Z,71.30
2018-04-11T00:17:50.256Z,71.39
2018-04-11T00:18:50.178Z,71.30
2018-04-11T00:19:50.091Z,71.20
2018-04-11T00:20:50.016Z,70.81
2018-04-11T00:21:49.942Z,70.72
2018-04-11T00:22:49.867Z,70.72
2018-04-11T00:23:49.791Z,71.11
2018-04-11T00:24:49.704Z,70.72
2018-04-11T00:25:49.631Z,70.78
2018-04-11T00:26:49.555Z,70.72
2018-04-11T00:27:49.481Z,70.78
2018-04-11T00:28:49.393Z,70.87
2018-04-11T00:29:49.317Z,71.01
2018-04-11T00:30:49.242Z,70.91
2018-04-11T00:31:49.165Z,70.50
2018-04-11T00:32:49.091Z,70.68
2018-04-11T00:33:49.002Z,70.81
2018-04-11T00:34:48.925Z,70.53
2018-04-11T00:35:48.850Z,70.62
2018-04-11T00:36:48.774Z,70.68
2018-04-11T00:37:48.700Z,70.68
2018-04-11T00:38:48.613Z,70.68
2018-04-11T00:39:48.538Z,70.50
2018-04-11T00:40:48.463Z,70.40
2018-04-11T00:41:48.388Z,70.50
2018-04-11T00:42:48.312Z,70.50
2018-04-11T00:43:48.225Z,70.59
2018-04-11T00:44:48.150Z,70.40
2018-04-11T00:45:48.075Z,70.59
2018-04-11T00:46:48.000Z,70.50
2018-04-11T00:47:47.925Z,69.92
2018-04-11T00:48:47.840Z,70.40
2018-04-11T00:49:47.766Z,70.40
2018-04-11T00:50:47.689Z,70.59
2018-04-11T00:51:47.615Z,69.82
2018-04-11T00:52:47.527Z,70.01
2018-04-11T00:53:47.451Z,70.30
2018-04-11T00:54:47.376Z,70.01
2018-04-11T00:55:47.305Z,69.73
2018-04-11T00:56:47.214Z,69.73
2018-04-11T00:57:47.139Z,70.11
2018-04-11T00:58:47.063Z,69.73
2018-04-11T00:59:46.992Z,70.40
2018-04-11T01:00:46.902Z,70.50
2018-04-11T01:01:46.826Z,70.40
2018-04-11T01:02:46.750Z,69.73
2018-04-11T01:03:46.675Z,69.73
2018-04-11T01:04:46.599Z,70.30
2018-04-11T01:05:46.513Z,69.73
2018-04-11T01:06:46.437Z,70.01
2018-04-11T01:07:46.365Z,70.21
2018-04-11T01:08:46.287Z,70.21
2018-04-11T01:09:46.201Z,69.73
2018-04-11T01:10:46.124Z,69.79
2018-04-11T01:11:46.050Z,69.79
2018-04-11T01:12:45.974Z,69.89
2018-04-11T01:13:45.887Z,70.01
2018-04-11T01:14:45.813Z,69.21
2018-04-11T01:15:45.738Z,69.12
2018-04-11T01:16:45.963Z,69.31
2018-04-11T01:17:45.576Z,69.12
2018-04-11T01:18:45.500Z,69.50
2018-04-11T01:19:45.426Z,69.21
2018-04-11T01:20:45.363Z,69.12
2018-04-11T01:21:45.265Z,69.31
2018-04-11T01:22:45.192Z,68.93
2018-04-11T01:23:45.119Z,69.21
2018-04-11T01:24:45.040Z,69.21
2018-04-11T01:25:44.956Z,68.64
2018-04-11T01:26:45.126Z,68.64
2018-04-11T01:27:44.814Z,69.02
2018-04-11T01:28:44.726Z,68.93
2018-04-11T01:29:44.651Z,69.02
2018-04-11T01:30:44.608Z,68.64
2018-04-11T01:31:44.490Z,68.74
2018-04-11T01:32:44.419Z,68.74
2018-04-11T01:33:44.331Z,68.74
2018-04-11T01:34:44.252Z,68.74
2018-04-11T01:35:44.177Z,68.35
2018-04-11T01:36:44.116Z,68.35
2018-04-11T01:37:44.015Z,68.35
2018-04-11T01:38:43.944Z,68.55
2018-04-11T01:39:43.864Z,68.55
2018-04-11T01:40:43.790Z,68.45
2018-04-11T01:41:43.702Z,68.55
2018-04-11T01:42:43.627Z,68.16
2018-04-11T01:43:43.552Z,68.26
2018-04-11T01:44:43.477Z,68.16
2018-04-11T01:45:43.390Z,68.55
2018-04-11T01:46:43.316Z,68.35
2018-04-11T01:47:43.241Z,68.16
2018-04-11T01:48:43.166Z,68.07
2018-04-11T01:49:43.078Z,68.07
2018-04-11T01:50:43.004Z,68.26
2018-04-11T01:51:43.178Z,68.26
2018-04-11T01:52:42.853Z,68.16
2018-04-11T01:53:42.767Z,68.45
2018-04-11T01:54:42.692Z,67.97
2018-04-11T01:55:42.617Z,68.55
2018-04-11T01:56:42.793Z,68.35
2018-04-11T01:57:42.455Z,68.16
2018-04-11T01:58:42.380Z,68.64
2018-04-11T01:59:42.305Z,67.88
2018-04-11T02:00:42.233Z,68.26
2018-04-11T02:01:42.144Z,68.26
2018-04-11T02:02:42.069Z,68.26
2018-04-11T02:03:41.993Z,68.26
2018-04-11T02:04:41.926Z,68.26
2018-04-11T02:05:41.831Z,67.69
2018-04-11T02:06:41.757Z,68.55
2018-04-11T02:07:41.694Z,67.69
2018-04-11T02:08:41.607Z,68.16
2018-04-11T02:09:41.572Z,67.78
2018-04-11T02:10:41.445Z,68.35
2018-04-11T02:11:41.370Z,68.16
2018-04-11T02:12:41.283Z,68.45
2018-04-11T02:13:41.206Z,68.45
2018-04-11T02:14:41.131Z,67.69
2018-04-11T02:15:41.057Z,68.16
2018-04-11T02:16:40.981Z,68.16
2018-04-11T02:17:40.894Z,67.97
2018-04-11T02:18:40.820Z,67.97
2018-04-11T02:19:40.745Z,68.32
2018-04-11T02:20:40.658Z,67.78
2018-04-11T02:21:40.889Z,68.23
2018-04-11T02:22:40.508Z,68.16
2018-04-11T02:23:40.432Z,68.55
2018-04-11T02:24:40.350Z,68.23
2018-04-11T02:25:40.271Z,68.41
2018-04-11T02:26:40.195Z,68.04
2018-04-11T02:27:40.121Z,68.41
2018-04-11T02:28:40.036Z,68.13
2018-04-11T02:29:39.961Z,68.32
2018-04-11T02:30:39.897Z,67.75
2018-04-11T02:31:39.811Z,67.55
2018-04-11T02:32:39.726Z,68.51
2018-04-11T02:33:39.645Z,67.55
2018-04-11T02:34:39.572Z,68.13
2018-04-11T02:35:39.500Z,68.04
2018-04-11T02:36:39.410Z,67.55
2018-04-11T02:37:39.335Z,67.55
2018-04-11T02:38:39.272Z,67.75
2018-04-11T02:39:39.185Z,67.94
2018-04-11T02:40:39.101Z,67.65
2018-04-11T02:41:39.023Z,67.84
2018-04-11T02:42:38.948Z,68.04
2018-04-11T02:43:38.873Z,67.94
2018-04-11T02:44:38.785Z,67.75
2018-04-11T02:45:38.710Z,67.94
2018-04-11T02:46:38.642Z,67.65
2018-04-11T02:47:38.551Z,67.94
2018-04-11T02:48:38.473Z,67.84
2018-04-11T02:49:38.399Z,67.84
2018-04-11T02:50:38.323Z,67.84
2018-04-11T02:51:38.236Z,67.75
2018-04-11T02:52:38.159Z,67.75
2018-04-11T02:53:38.097Z,67.84
2018-04-11T02:54:38.009Z,67.75
2018-04-11T02:55:37.923Z,67.75
2018-04-11T02:56:37.848Z,67.84
2018-04-11T02:57:37.772Z,68.04
2018-04-11T02:58:37.698Z,67.65
2018-04-11T02:59:37.611Z,67.75
2018-04-11T03:00:37.534Z,67.75
2018-04-11T03:01:37.469Z,67.65
2018-04-11T03:02:37.373Z,67.75
2018-04-11T03:03:37.303Z,68.00
2018-04-11T03:04:37.225Z,68.00
2018-04-11T03:05:37.149Z,67.14
2018-04-11T03:06:37.061Z,67.05
2018-04-11T03:07:36.986Z,67.14
2018-04-11T03:08:36.913Z,67.14
2018-04-11T03:09:36.836Z,67.52
2018-04-11T03:10:36.750Z,67.43
2018-04-11T03:11:36.675Z,66.85
2018-04-11T03:12:36.604Z,67.52
2018-04-11T03:13:36.514Z,66.95
2018-04-11T03:14:36.440Z,66.63
2018-04-11T03:15:36.363Z,66.72
2018-04-11T03:16:36.287Z,66.66
2018-04-11T03:17:36.201Z,66.53
2018-04-11T03:18:36.127Z,66.85
2018-04-11T03:19:36.052Z,66.82
2018-04-11T03:20:35.975Z,66.63
2018-04-11T03:21:35.888Z,66.53
2018-04-11T03:22:35.814Z,66.19
2018-04-11T03:23:35.737Z,66.06
2018-04-11T03:24:35.650Z,66.00
2018-04-11T03:25:35.575Z,66.25
2018-04-11T03:26:35.503Z,66.44
2018-04-11T03:27:35.425Z,65.67
2018-04-11T03:28:35.338Z,65.77
2018-04-11T03:29:35.263Z,66.25
2018-04-11T03:30:35.187Z,65.96
2018-04-11T03:31:35.113Z,66.06
2018-04-11T03:32:35.026Z,65.96
2018-04-11T03:33:34.960Z,65.67
2018-04-11T03:34:34.876Z,66.06
2018-04-11T03:35:34.790Z,65.96
2018-04-11T03:36:34.714Z,65.58
2018-04-11T03:37:34.639Z,66.06
2018-04-11T03:38:34.563Z,66.06
2018-04-11T03:39:34.476Z,65.77
2018-04-11T03:40:34.402Z,66.25
2018-04-11T03:41:34.327Z,65.96
2018-04-11T03:42:34.239Z,65.87
2018-04-11T03:43:34.164Z,66.35
2018-04-11T03:44:34.089Z,65.67
2018-04-11T03:45:34.014Z,65.77
2018-04-11T03:46:33.928Z,65.67
2018-04-11T03:47:33.853Z,66.25
2018-04-11T03:48:33.779Z,65.87
2018-04-11T03:49:33.690Z,65.58
2018-04-11T03:50:33.615Z,65.39
2018-04-11T03:51:33.555Z,65.77
2018-04-11T03:52:33.465Z,65.39
2018-04-11T03:53:33.384Z,65.39
2018-04-11T03:54:33.304Z,65.20
2018-04-11T03:55:33.228Z,65.48
2018-04-11T03:56:33.153Z,65.30
2018-04-11T03:57:33.066Z,65.58
2018-04-11T03:58:32.990Z,65.48
2018-04-11T03:59:32.915Z,65.39
2018-04-11T04:00:32.829Z,65.48
2018-04-11T04:01:32.755Z,65.30
2018-04-11T04:02:32.680Z,65.30
2018-04-11T04:03:32.590Z,65.39
2018-04-11T04:04:32.515Z,65.96
2018-04-11T04:05:32.441Z,65.30
2018-04-11T04:06:32.356Z,65.77
2018-04-11T04:07:32.279Z,65.77
2018-04-11T04:08:32.203Z,65.58
2018-04-11T04:09:32.117Z,65.58
2018-04-11T04:10:32.041Z,65.30
2018-04-11T04:11:31.979Z,65.67
2018-04-11T04:12:31.891Z,65.96
2018-04-11T04:13:31.805Z,65.39
2018-04-11T04:14:31.730Z,65.48
2018-04-11T04:15:31.656Z,66.15
2018-04-11T04:16:31.568Z,65.58
2018-04-11T04:17:31.492Z,65.58
2018-04-11T04:18:31.417Z,65.58
2018-04-11T04:19:31.342Z,65.77
2018-04-11T04:20:31.255Z,65.67
2018-04-11T04:21:31.182Z,65.58
2018-04-11T04:22:31.106Z,65.67
2018-04-11T04:23:31.017Z,65.39
2018-04-11T04:24:30.943Z,65.58
2018-04-11T04:25:30.869Z,66.06
2018-04-11T04:26:30.782Z,66.06
2018-04-11T04:27:30.707Z,65.67
2018-04-11T04:28:30.633Z,66.35
2018-04-11T04:29:30.544Z,65.96
2018-04-11T04:30:30.468Z,66.25
2018-04-11T04:31:30.396Z,65.58
2018-04-11T04:32:30.318Z,65.87
2018-04-11T04:33:30.231Z,65.77
2018-04-11T04:34:30.157Z,66.06
2018-04-11T04:35:30.081Z,66.25
2018-04-11T04:36:29.993Z,66.06
2018-04-11T04:37:29.918Z,65.87
2018-04-11T04:38:29.843Z,65.87
2018-04-11T04:39:29.757Z,65.96
2018-04-11T04:40:29.681Z,66.25
2018-04-11T04:41:29.606Z,65.96
2018-04-11T04:42:29.531Z,65.67
2018-04-11T04:43:29.475Z,65.96
2018-04-11T04:44:29.372Z,65.96
2018-04-11T04:45:29.293Z,66.15
2018-04-11T04:46:29.206Z,65.96
2018-04-11T04:47:29.143Z,65.96
2018-04-11T04:48:29.057Z,65.77
2018-04-11T04:49:28.982Z,66.06
2018-04-11T04:50:28.893Z,65.20
2018-04-11T04:51:28.819Z,65.96
2018-04-11T04:52:28.744Z,65.48
2018-04-11T04:53:28.657Z,65.30
2018-04-11T04:54:28.582Z,65.39
2018-04-11T04:55:28.508Z,66.06
2018-04-11T04:56:28.419Z,66.25
2018-04-11T04:57:28.345Z,65.87
2018-04-11T04:58:28.282Z,66.06
2018-04-11T04:59:28.186Z,65.96
2018-04-11T05:00:28.116Z,66.06
2018-04-11T05:01:28.034Z,65.87
2018-04-11T05:02:27.947Z,66.06
2018-04-11T05:03:27.883Z,65.96
2018-04-11T05:04:27.797Z,65.96
2018-04-11T05:05:27.720Z,65.96
2018-04-11T05:06:27.645Z,65.96
2018-04-11T05:07:27.558Z,65.67
2018-04-11T05:08:27.483Z,66.35
2018-04-11T05:09:27.396Z,65.39
2018-04-11T05:10:27.321Z,65.67
2018-04-11T05:11:27.246Z,65.58
2018-04-11T05:12:27.159Z,65.67
2018-04-11T05:13:27.085Z,65.48
2018-04-11T05:14:27.011Z,65.39
2018-04-11T05:15:26.934Z,64.34
2018-04-11T05:16:26.847Z,63.76
2018-04-11T05:17:26.785Z,64.53
2018-04-11T05:18:26.695Z,63.73
2018-04-11T05:19:26.610Z,62.97
2018-04-11T05:20:26.534Z,63.16
2018-04-11T05:21:26.460Z,63.26
2018-04-11T05:22:26.374Z,63.16
2018-04-11T05:23:26.296Z,62.97
2018-04-11T05:24:26.221Z,63.07
2018-04-11T05:25:26.150Z,63.92
2018-04-11T05:26:26.061Z,64.15
2018-04-11T05:27:25.985Z,64.05
2018-04-11T05:28:25.913Z,63.39
2018-04-11T05:29:25.822Z,64.34
2018-04-11T05:30:25.747Z,64.25
2018-04-11T05:31:25.672Z,63.39
2018-04-11T05:32:25.587Z,63.67
2018-04-11T05:33:25.511Z,64.15
2018-04-11T05:34:25.436Z,64.53
2018-04-11T05:35:25.349Z,63.29
2018-04-11T05:36:25.273Z,62.34
2018-04-11T05:37:25.198Z,61.92
2018-04-11T05:38:25.123Z,62.49
2018-04-11T05:39:25.036Z,61.83
2018-04-11T05:40:24.961Z,61.25
2018-04-11T05:41:24.887Z,61.07
2018-04-11T05:42:24.797Z,60.78
2018-04-11T05:43:24.727Z,58.58
2018-04-11T05:44:24.648Z,60.30
2018-04-11T05:45:24.562Z,60.30
2018-04-11T05:46:24.487Z,59.73
2018-04-11T05:47:24.411Z,58.87
2018-04-11T05:48:24.324Z,58.01
2018-04-11T05:49:24.249Z,57.50
2018-04-11T05:50:24.173Z,57.06
2018-04-11T05:51:24.088Z,58.46
2018-04-11T05:52:24.015Z,56.58
2018-04-11T05:53:23.967Z,57.24
2018-04-11T05:54:23.851Z,58.77
2018-04-11T05:55:23.774Z,56.58
2018-04-11T05:56:23.699Z,56.93
2018-04-11T05:57:23.613Z,55.82
2018-04-11T05:58:23.537Z,55.34
2018-04-11T05:59:23.462Z,57.34
2018-04-11T06:00:23.392Z,57.72
2018-04-11T06:01:23.300Z,56.58
2018-04-11T06:02:23.226Z,55.62
2018-04-11T06:03:23.138Z,55.15
2018-04-11T06:04:23.063Z,56.67
2018-04-11T06:05:22.988Z,57.82
2018-04-11T06:06:22.903Z,56.89
2018-04-11T06:07:22.831Z,57.37
2018-04-11T06:08:22.749Z,56.99
2018-04-11T06:09:22.665Z,59.56
2018-04-11T06:10:22.597Z,58.33
2018-04-11T06:11:22.514Z,58.54
2018-04-11T06:12:22.438Z,59.98
2018-04-11T06:13:22.350Z,59.12
2018-04-11T06:14:22.275Z,60.39
2018-04-11T06:15:22.200Z,60.68
2018-04-11T06:16:22.114Z,61.82
2018-04-11T06:17:22.041Z,62.78
2018-04-11T06:18:21.969Z,60.96
2018-04-11T06:19:21.880Z,62.49
2018-04-11T06:20:21.801Z,62.11
2018-04-11T06:21:21.739Z,62.01
2018-04-11T06:22:21.651Z,63.26
2018-04-11T06:23:21.571Z,62.21
2018-04-11T06:24:21.490Z,62.30
2018-04-11T06:25:21.417Z,62.59
2018-04-11T06:26:21.340Z,63.64
2018-04-11T06:27:21.252Z,63.29
2018-04-11T06:28:21.179Z,62.52
2018-04-11T06:29:21.102Z,63.10
2018-04-11T06:30:21.040Z,64.25
2018-04-11T06:31:20.941Z,63.67
2018-04-11T06:32:20.872Z,66.35
2018-04-11T06:33:20.790Z,64.22
2018-04-11T06:34:20.716Z,63.35
2018-04-11T06:35:20.629Z,63.35
2018-04-11T06:36:20.552Z,63.35
2018-04-11T06:37:20.481Z,63.54
2018-04-11T06:38:20.403Z,63.83
2018-04-11T06:39:20.333Z,63.35
2018-04-11T06:40:20.244Z,63.26
2018-04-11T06:41:20.168Z,64.50
2018-04-11T06:42:20.091Z,65.01
2018-04-11T06:43:20.017Z,64.34
2018-04-11T06:44:19.929Z,65.39
2018-04-11T06:45:19.866Z,65.11
2018-04-11T06:46:19.779Z,65.23
2018-04-11T06:47:19.708Z,65.14
2018-04-11T06:48:19.628Z,66.57
2018-04-11T06:49:19.541Z,66.16
2018-04-11T06:50:19.467Z,64.72
2018-04-11T06:51:19.392Z,65.77
2018-04-11T06:52:19.317Z,65.90
2018-04-11T06:53:19.242Z,66.28
2018-04-11T06:54:19.155Z,66.38
2018-04-11T06:55:19.079Z,66.32
2018-04-11T06:56:19.004Z,66.47
2018-04-11T06:57:18.932Z,66.38
2018-04-11T06:58:18.858Z,67.27
2018-04-11T06:59:18.768Z,67.24
2018-04-11T07:00:18.693Z,65.71
2018-04-11T07:01:18.621Z,66.67
2018-04-11T07:02:18.544Z,66.96
2018-04-11T07:03:18.473Z,66.99
2018-04-11T07:04:18.382Z,68.17
2018-04-11T07:05:18.305Z,67.88
2018-04-11T07:06:18.230Z,67.11
2018-04-11T07:07:18.169Z,68.55
2018-04-11T07:08:18.080Z,68.55
2018-04-11T07:09:18.005Z,68.17
2018-04-11T07:10:17.933Z,67.69
2018-04-11T07:11:17.844Z,67.69
2018-04-11T07:12:17.769Z,69.13
2018-04-11T07:13:17.694Z,67.60
2018-04-11T07:14:17.630Z,68.27
2018-04-11T07:15:17.545Z,69.07
2018-04-11T07:16:17.469Z,68.62
2018-04-11T07:17:17.401Z,72.17
2018-04-11T07:18:17.320Z,71.37
2018-04-11T07:19:17.243Z,70.83
2018-04-11T07:20:17.170Z,73.03
2018-04-11T07:21:17.080Z,73.35
2018-04-11T07:22:17.006Z,72.55
2018-04-11T07:23:16.931Z,72.74
2018-04-11T07:24:16.868Z,75.37
2018-04-11T07:25:16.781Z,75.70
2018-04-11T07:26:16.706Z,75.98
2018-04-11T07:27:16.632Z,73.65
2018-04-11T07:28:16.570Z,76.14
2018-04-11T07:29:16.482Z,75.95
2018-04-11T07:30:16.407Z,75.50
2018-04-11T07:31:16.335Z,74.69
2018-04-11T07:32:16.270Z,75.95
2018-04-11T07:33:16.185Z,76.37
2018-04-11T07:34:16.112Z,76.56
2018-04-11T07:35:16.036Z,76.56
2018-04-11T07:36:15.958Z,77.56
2018-04-11T07:37:15.882Z,76.75
2018-04-11T07:38:15.808Z,77.46
2018-04-11T07:39:15.740Z,78.17
2018-04-11T07:40:15.703Z,77.46
2018-04-11T07:41:15.584Z,78.80
2018-04-11T07:42:15.511Z,78.36
2018-04-11T07:43:15.446Z,77.33
2018-04-11T07:44:15.372Z,77.75
2018-04-11T07:45:15.298Z,78.23
2018-04-11T07:46:15.231Z,78.23
2018-04-11T07:47:15.147Z,78.32
2018-04-11T07:48:15.072Z,78.55
2018-04-11T07:49:14.997Z,78.23
2018-04-11T07:50:14.922Z,78.65
2018-04-11T07:51:14.848Z,78.45
2018-04-11T07:52:14.773Z,77.92
2018-04-11T07:53:14.709Z,78.78
2018-04-11T07:54:14.634Z,77.76
2018-04-11T07:55:14.559Z,77.34
2018-04-11T07:56:14.485Z,78.27
2018-04-11T07:57:14.410Z,78.55
2018-04-11T07:58:14.335Z,78.84
2018-04-11T07:59:14.260Z,77.88
2018-04-11T08:00:14.186Z,78.98
2018-04-11T08:01:14.125Z,78.27
2018-04-11T08:02:14.048Z,77.78
2018-04-11T08:03:13.990Z,78.80
2018-04-11T08:04:13.898Z,79.61
2018-04-11T08:05:13.823Z,79.13
2018-04-11T08:06:13.748Z,78.36
2018-04-11T08:07:13.692Z,78.50
2018-04-11T08:08:13.611Z,77.73
2018-04-11T08:09:13.537Z,77.81
2018-04-11T08:10:13.461Z,76.07
2018-04-11T08:11:13.386Z,76.42
2018-04-11T08:12:13.310Z,77.58
2018-04-11T08:13:13.237Z,77.09
2018-04-11T08:14:13.175Z,77.06
2018-04-11T08:15:13.103Z,77.53
2018-04-11T08:16:13.025Z,77.38
2018-04-11T08:17:12.949Z,77.33
2018-04-11T08:18:12.877Z,76.52
2018-04-11T08:19:12.812Z,77.63
2018-04-11T08:20:12.738Z,77.53
2018-04-11T08:21:12.662Z,77.63
2018-04-11T08:22:12.586Z,77.19
2018-04-11T08:23:12.521Z,75.34
2018-04-11T08:24:12.450Z,73.03
2018-04-11T08:25:12.380Z,72.36
2018-04-11T08:26:12.300Z,75.31
2018-04-11T08:27:12.225Z,76.39
2018-04-11T08:28:12.163Z,77.06
2018-04-11T08:29:12.088Z,76.90
2018-04-11T08:30:12.065Z,76.46
2018-04-11T08:31:11.951Z,74.73
2018-04-11T08:32:11.882Z,75.40
2018-04-11T08:33:11.801Z,76.32
2018-04-11T08:34:11.727Z,77.53
2018-04-11T08:35:11.663Z,77.48
2018-04-11T08:36:11.588Z,76.90
2018-04-11T08:37:11.514Z,75.17
2018-04-11T08:38:11.452Z,75.02
2018-04-11T08:39:11.382Z,75.02
2018-04-11T08:40:11.303Z,71.53
2018-04-11T08:41:11.228Z,71.37
2018-04-11T08:42:11.166Z,67.46
2018-04-11T08:43:11.090Z,65.05
2018-04-11T08:44:11.014Z,63.54
2018-04-11T08:45:10.953Z,62.45
2018-04-11T08:46:10.884Z,63.57
2018-04-11T08:47:10.803Z,68.26
2018-04-11T08:48:10.753Z,68.99
2018-04-11T08:49:10.665Z,73.67
2018-04-11T08:50:10.603Z,72.36
2018-04-11T08:51:10.529Z,75.11
2018-04-11T08:52:10.454Z,74.63
2018-04-11T08:53:10.390Z,75.49
2018-04-11T08:54:10.315Z,73.51
2018-04-11T08:55:10.254Z,72.94
2018-04-11T08:56:10.179Z,73.22
2018-04-11T08:57:10.117Z,73.36
2018-04-11T08:58:10.041Z,71.11
2018-04-11T08:59:09.975Z,72.26
2018-04-11T09:00:09.904Z,73.51
2018-04-11T09:01:09.830Z,75.17
2018-04-11T09:02:09.780Z,75.31
2018-04-11T09:03:09.691Z,75.02
2018-04-11T09:04:09.617Z,73.90
2018-04-11T09:05:09.555Z,72.01
2018-04-11T09:06:09.480Z,68.96
2018-04-11T09:07:09.417Z,68.54
2018-04-11T09:08:09.342Z,68.93
2018-04-11T09:09:09.268Z,67.87
2018-04-11T09:10:09.205Z,69.95
2018-04-11T09:11:09.130Z,69.12
2018-04-11T09:12:09.067Z,68.13
2018-04-11T09:13:08.991Z,72.36
2018-04-11T09:14:08.921Z,72.80
2018-04-11T09:15:08.864Z,72.52
2018-04-11T09:16:08.781Z,71.88
2018-04-11T09:17:08.731Z,71.72
2018-04-11T09:18:08.643Z,68.84
2018-04-11T09:19:08.568Z,67.03
2018-04-11T09:20:08.510Z,65.78
2018-04-11T09:21:08.431Z,64.73
2018-04-11T09:22:08.358Z,68.44
2018-04-11T09:23:08.294Z,70.15
2018-04-11T09:24:08.218Z,71.46
2018-04-11T09:25:08.145Z,73.00
2018-04-11T09:26:08.119Z,74.63
2018-04-11T09:27:08.007Z,74.50
2018-04-11T09:28:07.937Z,74.63
2018-04-11T09:29:07.857Z,74.63
2018-04-11T09:30:07.794Z,72.59
2018-04-11T09:31:07.719Z,71.47
2018-04-11T09:32:07.656Z,67.74
2018-04-11T09:33:07.574Z,67.23
2018-04-11T09:34:07.494Z,68.51
2018-04-11T09:35:07.432Z,70.88
2018-04-11T09:36:07.358Z,73.19
2018-04-11T09:37:07.283Z,74.30
2018-04-11T09:38:07.219Z,75.56
2018-04-11T09:39:07.135Z,76.81
2018-04-11T09:40:07.058Z,77.00
2018-04-11T09:41:06.996Z,77.29
2018-04-11T09:42:06.920Z,77.00
2018-04-11T09:43:06.858Z,76.81
2018-04-11T09:44:06.770Z,76.90
2018-04-11T09:45:06.696Z,75.37
2018-04-11T09:46:06.622Z,76.04
2018-04-11T09:47:06.558Z,76.14
2018-04-11T09:48:06.484Z,76.39
2018-04-11T09:49:06.411Z,77.53
2018-04-11T09:50:06.334Z,77.67
2018-04-11T09:51:06.264Z,77.15
2018-04-11T09:52:06.188Z,76.71
2018-04-11T09:53:06.121Z,76.90
2018-04-11T09:54:06.052Z,76.90
2018-04-11T09:55:05.971Z,75.75
2018-04-11T09:56:05.897Z,76.48
2018-04-11T09:57:05.822Z,77.69
2018-04-11T09:58:05.751Z,79.03
2018-04-11T09:59:05.672Z,78.08
2018-04-11T10:00:05.610Z,77.92
2018-04-11T10:01:05.522Z,78.06
2018-04-11T10:02:05.449Z,77.96
2018-04-11T10:03:05.387Z,76.52
2018-04-11T10:04:05.310Z,74.98
2018-04-11T10:05:05.238Z,75.23
2018-04-11T10:06:05.161Z,76.23
2018-04-11T10:07:05.087Z,74.82
2018-04-11T10:08:05.011Z,74.73
2018-04-11T10:09:04.937Z,74.92
2018-04-11T10:10:04.864Z,73.86
2018-04-11T10:11:04.786Z,74.54
2018-04-11T10:12:04.712Z,73.19
2018-04-11T10:13:04.637Z,73.00
2018-04-11T10:14:04.564Z,74.92
2018-04-11T10:15:04.501Z,74.11
2018-04-11T10:16:04.425Z,74.44
2018-04-11T10:17:04.348Z,74.50
2018-04-11T10:18:04.274Z,75.07
2018-04-11T10:19:04.207Z,74.25
2018-04-11T10:20:04.125Z,74.60
2018-04-11T10:21:04.049Z,74.88
2018-04-11T10:22:03.975Z,74.54
2018-04-11T10:23:03.900Z,73.38
2018-04-11T10:24:03.826Z,73.38
2018-04-11T10:25:03.750Z,72.86
2018-04-11T10:26:03.674Z,73.57
2018-04-11T10:27:03.600Z,71.94
2018-04-11T10:28:03.525Z,71.75
2018-04-11T10:29:03.464Z,71.59
2018-04-11T10:30:03.389Z,69.92
2018-04-11T10:31:03.325Z,71.88
2018-04-11T10:32:03.239Z,71.69
2018-04-11T10:33:03.164Z,71.97
2018-04-11T10:34:03.088Z,70.24
2018-04-11T10:35:03.020Z,69.47
2018-04-11T10:36:02.939Z,71.30
2018-04-11T10:37:02.864Z,68.99
2018-04-11T10:38:02.789Z,69.28
2018-04-11T10:39:02.718Z,70.92
2018-04-11T10:40:02.651Z,71.69
2018-04-11T10:41:02.590Z,70.34
2018-04-11T10:42:02.501Z,69.67
2018-04-11T10:43:02.430Z,67.29
2018-04-11T10:44:02.351Z,67.61
2018-04-11T10:45:02.277Z,68.10
2018-04-11T10:46:02.202Z,65.11
2018-04-11T10:47:02.127Z,65.66
2018-04-11T10:48:02.053Z,66.71
2018-04-11T10:49:01.990Z,68.93
2018-04-11T10:50:01.916Z,68.00
2018-04-11T10:51:01.841Z,67.52
2018-04-11T10:52:01.766Z,66.46
2018-04-11T10:53:01.703Z,66.39
2018-04-11T10:54:01.627Z,64.47
2018-04-11T10:55:01.553Z,66.55
2018-04-11T10:56:01.481Z,64.82
2018-04-11T10:57:01.416Z,65.33
2018-04-11T10:58:01.345Z,64.47
2018-04-11T10:59:01.266Z,64.92
2018-04-11T11:00:01.203Z,66.55
2018-04-11T11:01:01.132Z,66.14
2018-04-11T11:02:01.067Z,66.75
2018-04-11T11:03:00.993Z,65.50
2018-04-11T11:04:00.917Z,64.73
2018-04-11T11:05:00.853Z,63.31
2018-04-11T11:06:00.799Z,60.51
2018-04-11T11:07:00.717Z,58.19
2018-04-11T11:08:00.654Z,57.90
2018-04-11T11:09:00.579Z,56.16
2018-04-11T11:10:00.517Z,58.81
2018-04-11T11:11:00.442Z,62.41
2018-04-11T11:12:00.379Z,67.65
2018-04-11T11:13:00.306Z,65.78
2018-04-11T11:14:00.243Z,63.50
2018-04-11T11:15:00.170Z,61.48
2018-04-11T11:16:00.105Z,60.83
2018-04-11T11:17:00.030Z,59.13
2018-04-11T11:17:59.969Z,59.06
2018-04-11T11:18:59.894Z,59.19
2018-04-11T11:19:59.831Z,56.32
2018-04-11T11:20:59.768Z,53.55
2018-04-11T11:21:59.697Z,53.71
2018-04-11T11:22:59.619Z,54.55
2018-04-11T11:23:59.556Z,58.42
2018-04-11T11:24:59.494Z,64.34
2018-04-11T11:25:59.419Z,66.65
2018-04-11T11:26:59.356Z,68.54
2018-04-11T11:27:59.281Z,64.66
2018-04-11T11:28:59.219Z,64.37
2018-04-11T11:29:59.145Z,62.86
2018-04-11T11:30:59.095Z,60.86
2018-04-11T11:31:59.008Z,59.83
2018-04-11T11:32:58.945Z,58.70
2018-04-11T11:33:58.881Z,56.51
2018-04-11T11:34:58.807Z,55.90
2018-04-11T11:35:58.746Z,57.14
2018-04-11T11:36:58.669Z,58.19
2018-04-11T11:37:58.607Z,56.96
2018-04-11T11:38:58.545Z,54.49
2018-04-11T11:39:58.471Z,55.23
2018-04-11T11:40:58.407Z,54.39
2018-04-11T11:41:58.332Z,55.01
2018-04-11T11:42:58.270Z,57.37
2018-04-11T11:43:58.200Z,59.55
2018-04-11T11:44:58.132Z,61.58
2018-04-11T11:45:58.108Z,62.73
2018-04-11T11:46:57.997Z,64.89
2018-04-11T11:47:57.936Z,66.30
2018-04-11T11:48:57.871Z,61.83
2018-04-11T11:49:57.796Z,59.42
2018-04-11T11:50:57.736Z,59.58
2018-04-11T11:51:57.658Z,56.25
2018-04-11T11:52:57.597Z,55.55
2018-04-11T11:53:57.534Z,56.87
2018-04-11T11:54:57.459Z,55.09
2018-04-11T11:55:57.397Z,54.51
2018-04-11T11:56:57.322Z,54.75
2018-04-11T11:57:57.259Z,55.65
2018-04-11T11:58:57.198Z,55.83
2018-04-11T11:59:57.122Z,56.32
2018-04-11T12:00:57.060Z,58.00
2018-04-11T12:01:56.997Z,58.94
2018-04-11T12:02:56.923Z,59.61
2018-04-11T12:03:56.859Z,59.06
2018-04-11T12:04:56.799Z,58.19
2018-04-11T12:05:56.723Z,60.68
2018-04-11T12:06:56.660Z,58.80
2018-04-11T12:07:56.601Z,56.22
2018-04-11T12:08:56.524Z,54.51
2018-04-11T12:09:56.460Z,54.87
2018-04-11T12:10:56.397Z,55.09
2018-04-11T12:11:56.380Z,53.93
2018-04-11T12:12:56.260Z,56.10
2018-04-11T12:13:56.199Z,56.96
2018-04-11T12:14:56.124Z,56.94
2018-04-11T12:15:56.069Z,58.10
2018-04-11T12:16:55.986Z,58.39
2018-04-11T12:17:55.924Z,57.16
2018-04-11T12:18:55.862Z,57.14
2018-04-11T12:19:55.799Z,56.39
2018-04-11T12:20:55.724Z,56.84
2018-04-11T12:21:55.662Z,58.97
2018-04-11T12:22:55.600Z,58.51
2018-04-11T12:23:55.527Z,57.93
2018-04-11T12:24:55.461Z,58.55
2018-04-11T12:25:55.399Z,60.58
2018-04-11T12:26:55.327Z,61.03
2018-04-11T12:27:55.262Z,60.48
2018-04-11T12:28:55.201Z,59.45
2018-04-11T12:29:55.137Z,59.25
2018-04-11T12:30:55.066Z,59.64
2018-04-11T12:31:55.000Z,57.35
2018-04-11T12:32:54.938Z,58.19
2018-04-11T12:33:54.862Z,60.55
2018-04-11T12:34:54.800Z,63.50
2018-04-11T12:35:54.737Z,66.85
2018-04-11T12:36:54.662Z,66.46
2018-04-11T12:37:54.601Z,63.82
2018-04-11T12:38:54.538Z,62.96
2018-04-11T12:39:54.464Z,63.54
2018-04-11T12:40:54.402Z,63.15
2018-04-11T12:41:54.377Z,61.86
2018-04-11T12:42:54.263Z,58.58
2018-04-11T12:43:54.201Z,59.23
2018-04-11T12:44:54.129Z,59.64
2018-04-11T12:45:54.067Z,58.03
2018-04-11T12:46:54.001Z,59.06
2018-04-11T12:47:53.931Z,57.09
2018-04-11T12:48:53.865Z,55.19
2018-04-11T12:49:53.803Z,54.22
2018-04-11T12:50:53.731Z,56.32
2018-04-11T12:51:53.664Z,58.72